sensor_id;sensor_type;location;lat;lon;timestamp;P1;durP1;ratioP1;P2;durP2;ratioP2
40433;SDS011;26146;51.114;5.654;2023-04-15T00:00:21;9.10;;;3.33;;
40433;SDS011;26146;51.114;5.654;2023-04-15T00:04:22;9.50;;;3.10;;
40433;SDS011;26146;51.114;5.654;2023-04-15T00:08:23;9.97;;;3.50;;
40433;SDS011;26146;51.114;5.654;2023-04-15T00:12:25;10.83;;;3.50;;
40433;SDS011;26146;51.114;5.654;2023-04-15T00:16:27;13.37;;;3.60;;
40433;SDS011;26146;51.114;5.654;2023-04-15T00:20:30;13.87;;;4.20;;
40433;SDS011;26146;51.114;5.654;2023-04-15T00:24:31;8.50;;;3.47;;
40433;SDS011;26146;51.114;5.654;2023-04-15T00:28:32;10.67;;;3.70;;
40433;SDS011;26146;51.114;5.654;2023-04-15T00:32:33;10.83;;;3.70;;
40433;SDS011;26146;51.114;5.654;2023-04-15T00:36:34;10.70;;;3.50;;
40433;SDS011;26146;51.114;5.654;2023-04-15T00:40:38;11.00;;;3.60;;
40433;SDS011;26146;51.114;5.654;2023-04-15T00:44:39;11.50;;;3.87;;
40433;SDS011;26146;51.114;5.654;2023-04-15T00:48:40;9.57;;;3.47;;
40433;SDS011;26146;51.114;5.654;2023-04-15T00:52:41;9.13;;;3.50;;
40433;SDS011;26146;51.114;5.654;2023-04-15T00:56:42;8.63;;;3.40;;
40433;SDS011;26146;51.114;5.654;2023-04-15T01:00:43;10.80;;;3.73;;
40433;SDS011;26146;51.114;5.654;2023-04-15T01:04:45;10.87;;;3.63;;
40433;SDS011;26146;51.114;5.654;2023-04-15T01:08:48;10.03;;;3.40;;
40433;SDS011;26146;51.114;5.654;2023-04-15T01:12:49;10.00;;;3.40;;
40433;SDS011;26146;51.114;5.654;2023-04-15T01:16:51;8.37;;;3.43;;
40433;SDS011;26146;51.114;5.654;2023-04-15T01:20:52;12.37;;;3.63;;
40433;SDS011;26146;51.114;5.654;2023-04-15T01:24:54;9.17;;;3.40;;
40433;SDS011;26146;51.114;5.654;2023-04-15T01:29:01;9.57;;;3.50;;
40433;SDS011;26146;51.114;5.654;2023-04-15T01:33:02;11.87;;;3.87;;
40433;SDS011;26146;51.114;5.654;2023-04-15T01:37:03;11.87;;;3.70;;
40433;SDS011;26146;51.114;5.654;2023-04-15T01:41:04;11.03;;;3.60;;
40433;SDS011;26146;51.114;5.654;2023-04-15T01:45:07;12.83;;;3.80;;
40433;SDS011;26146;51.114;5.654;2023-04-15T01:49:09;10.07;;;3.57;;
40433;SDS011;26146;51.114;5.654;2023-04-15T01:53:12;9.53;;;3.43;;
40433;SDS011;26146;51.114;5.654;2023-04-15T01:57:13;10.83;;;4.00;;
40433;SDS011;26146;51.114;5.654;2023-04-15T02:01:14;9.90;;;3.30;;
40433;SDS011;26146;51.114;5.654;2023-04-15T02:05:16;13.20;;;3.93;;
40433;SDS011;26146;51.114;5.654;2023-04-15T02:09:17;10.13;;;3.67;;
40433;SDS011;26146;51.114;5.654;2023-04-15T02:13:18;9.23;;;3.63;;
40433;SDS011;26146;51.114;5.654;2023-04-15T02:17:19;11.33;;;4.07;;
40433;SDS011;26146;51.114;5.654;2023-04-15T02:21:20;9.60;;;3.97;;
40433;SDS011;26146;51.114;5.654;2023-04-15T02:25:21;12.03;;;4.10;;
40433;SDS011;26146;51.114;5.654;2023-04-15T02:29:22;12.07;;;4.10;;
40433;SDS011;26146;51.114;5.654;2023-04-15T02:33:23;11.27;;;4.43;;
40433;SDS011;26146;51.114;5.654;2023-04-15T02:37:24;11.40;;;3.90;;
40433;SDS011;26146;51.114;5.654;2023-04-15T02:41:28;12.73;;;4.37;;
40433;SDS011;26146;51.114;5.654;2023-04-15T02:45:29;12.13;;;4.30;;
40433;SDS011;26146;51.114;5.654;2023-04-15T02:49:30;12.53;;;4.40;;
40433;SDS011;26146;51.114;5.654;2023-04-15T02:53:32;13.70;;;4.50;;
40433;SDS011;26146;51.114;5.654;2023-04-15T02:57:32;13.37;;;4.43;;
40433;SDS011;26146;51.114;5.654;2023-04-15T03:01:36;12.73;;;4.40;;
40433;SDS011;26146;51.114;5.654;2023-04-15T03:05:37;13.60;;;4.50;;
40433;SDS011;26146;51.114;5.654;2023-04-15T03:09:38;10.67;;;4.07;;
40433;SDS011;26146;51.114;5.654;2023-04-15T03:13:40;11.37;;;4.30;;
40433;SDS011;26146;51.114;5.654;2023-04-15T03:17:42;12.23;;;4.50;;
40433;SDS011;26146;51.114;5.654;2023-04-15T03:21:43;11.73;;;4.57;;
40433;SDS011;26146;51.114;5.654;2023-04-15T03:25:44;11.70;;;4.90;;
40433;SDS011;26146;51.114;5.654;2023-04-15T03:29:45;11.80;;;4.70;;
40433;SDS011;26146;51.114;5.654;2023-04-15T03:33:46;12.43;;;4.50;;
40433;SDS011;26146;51.114;5.654;2023-04-15T03:37:47;11.23;;;5.10;;
40433;SDS011;26146;51.114;5.654;2023-04-15T03:41:49;14.67;;;5.10;;
40433;SDS011;26146;51.114;5.654;2023-04-15T03:45:50;12.40;;;5.13;;
40433;SDS011;26146;51.114;5.654;2023-04-15T03:49:51;11.13;;;4.60;;
40433;SDS011;26146;51.114;5.654;2023-04-15T03:53:52;14.37;;;5.20;;
40433;SDS011;26146;51.114;5.654;2023-04-15T03:57:55;13.10;;;5.53;;
40433;SDS011;26146;51.114;5.654;2023-04-15T04:01:56;15.23;;;5.63;;
40433;SDS011;26146;51.114;5.654;2023-04-15T04:05:57;14.67;;;5.90;;
40433;SDS011;26146;51.114;5.654;2023-04-15T04:09:58;13.70;;;5.80;;
40433;SDS011;26146;51.114;5.654;2023-04-15T04:14:01;12.87;;;5.57;;
40433;SDS011;26146;51.114;5.654;2023-04-15T04:18:02;13.07;;;5.80;;
40433;SDS011;26146;51.114;5.654;2023-04-15T04:22:03;12.07;;;5.97;;
40433;SDS011;26146;51.114;5.654;2023-04-15T04:26:04;15.00;;;6.33;;
40433;SDS011;26146;51.114;5.654;2023-04-15T04:30:05;12.87;;;5.87;;
40433;SDS011;26146;51.114;5.654;2023-04-15T04:34:07;12.03;;;6.10;;
40433;SDS011;26146;51.114;5.654;2023-04-15T04:38:08;13.03;;;6.13;;
40433;SDS011;26146;51.114;5.654;2023-04-15T04:42:09;12.53;;;5.80;;
40433;SDS011;26146;51.114;5.654;2023-04-15T04:46:10;14.63;;;6.47;;
40433;SDS011;26146;51.114;5.654;2023-04-15T04:50:12;15.80;;;6.60;;
40433;SDS011;26146;51.114;5.654;2023-04-15T04:54:13;13.53;;;6.27;;
40433;SDS011;26146;51.114;5.654;2023-04-15T04:58:14;16.10;;;6.40;;
40433;SDS011;26146;51.114;5.654;2023-04-15T05:02:15;13.93;;;6.60;;
40433;SDS011;26146;51.114;5.654;2023-04-15T05:06:16;14.77;;;7.07;;
40433;SDS011;26146;51.114;5.654;2023-04-15T05:10:19;17.13;;;6.80;;
40433;SDS011;26146;51.114;5.654;2023-04-15T05:14:20;14.57;;;6.87;;
40433;SDS011;26146;51.114;5.654;2023-04-15T05:18:21;15.60;;;6.80;;
40433;SDS011;26146;51.114;5.654;2023-04-15T05:22:22;13.87;;;6.77;;
40433;SDS011;26146;51.114;5.654;2023-04-15T05:26:23;16.07;;;7.23;;
40433;SDS011;26146;51.114;5.654;2023-04-15T05:30:24;16.07;;;6.97;;
40433;SDS011;26146;51.114;5.654;2023-04-15T05:34:28;15.43;;;7.70;;
40433;SDS011;26146;51.114;5.654;2023-04-15T05:38:29;16.67;;;7.90;;
40433;SDS011;26146;51.114;5.654;2023-04-15T05:42:30;17.17;;;7.97;;
40433;SDS011;26146;51.114;5.654;2023-04-15T05:46:30;17.83;;;8.37;;
40433;SDS011;26146;51.114;5.654;2023-04-15T05:50:31;18.70;;;8.43;;
40433;SDS011;26146;51.114;5.654;2023-04-15T05:54:32;16.67;;;8.27;;
40433;SDS011;26146;51.114;5.654;2023-04-15T05:58:33;16.33;;;8.70;;
40433;SDS011;26146;51.114;5.654;2023-04-15T06:02:35;15.97;;;8.73;;
40433;SDS011;26146;51.114;5.654;2023-04-15T06:06:36;19.90;;;9.50;;
40433;SDS011;26146;51.114;5.654;2023-04-15T06:10:42;17.80;;;9.03;;
40433;SDS011;26146;51.114;5.654;2023-04-15T06:14:43;19.63;;;9.00;;
40433;SDS011;26146;51.114;5.654;2023-04-15T06:18:44;18.73;;;9.17;;
40433;SDS011;26146;51.114;5.654;2023-04-15T06:22:45;19.47;;;9.63;;
40433;SDS011;26146;51.114;5.654;2023-04-15T06:26:46;19.80;;;9.80;;
40433;SDS011;26146;51.114;5.654;2023-04-15T06:30:47;20.10;;;10.17;;
40433;SDS011;26146;51.114;5.654;2023-04-15T06:34:47;18.30;;;10.03;;
40433;SDS011;26146;51.114;5.654;2023-04-15T06:38:48;21.50;;;10.67;;
40433;SDS011;26146;51.114;5.654;2023-04-15T06:42:49;20.77;;;10.80;;
40433;SDS011;26146;51.114;5.654;2023-04-15T06:46:50;20.60;;;10.57;;
40433;SDS011;26146;51.114;5.654;2023-04-15T06:50:51;20.07;;;10.87;;
40433;SDS011;26146;51.114;5.654;2023-04-15T06:54:52;21.63;;;10.80;;
40433;SDS011;26146;51.114;5.654;2023-04-15T06:58:53;22.43;;;11.57;;
40433;SDS011;26146;51.114;5.654;2023-04-15T07:02:54;19.73;;;11.30;;
40433;SDS011;26146;51.114;5.654;2023-04-15T07:06:55;20.53;;;11.10;;
40433;SDS011;26146;51.114;5.654;2023-04-15T07:10:56;20.50;;;10.80;;
40433;SDS011;26146;51.114;5.654;2023-04-15T07:14:57;19.47;;;10.13;;
40433;SDS011;26146;51.114;5.654;2023-04-15T07:18:58;21.73;;;10.87;;
40433;SDS011;26146;51.114;5.654;2023-04-15T07:22:59;18.97;;;10.33;;
40433;SDS011;26146;51.114;5.654;2023-04-15T07:27:00;19.17;;;10.27;;
40433;SDS011;26146;51.114;5.654;2023-04-15T07:31:01;20.37;;;10.07;;
40433;SDS011;26146;51.114;5.654;2023-04-15T07:35:02;19.43;;;10.20;;
40433;SDS011;26146;51.114;5.654;2023-04-15T07:39:04;18.67;;;10.13;;
40433;SDS011;26146;51.114;5.654;2023-04-15T07:43:05;19.67;;;10.30;;
40433;SDS011;26146;51.114;5.654;2023-04-15T07:47:09;18.30;;;10.43;;
40433;SDS011;26146;51.114;5.654;2023-04-15T07:51:10;19.37;;;10.10;;
40433;SDS011;26146;51.114;5.654;2023-04-15T07:55:12;18.13;;;9.87;;
40433;SDS011;26146;51.114;5.654;2023-04-15T07:59:13;20.53;;;9.00;;
40433;SDS011;26146;51.114;5.654;2023-04-15T08:03:17;18.07;;;9.00;;
40433;SDS011;26146;51.114;5.654;2023-04-15T08:07:18;16.63;;;8.63;;
40433;SDS011;26146;51.114;5.654;2023-04-15T08:11:21;16.70;;;8.53;;
40433;SDS011;26146;51.114;5.654;2023-04-15T08:15:23;16.63;;;8.27;;
40433;SDS011;26146;51.114;5.654;2023-04-15T08:19:25;15.00;;;7.63;;
40433;SDS011;26146;51.114;5.654;2023-04-15T08:23:29;15.60;;;7.83;;
40433;SDS011;26146;51.114;5.654;2023-04-15T08:27:30;15.57;;;7.83;;
40433;SDS011;26146;51.114;5.654;2023-04-15T08:31:31;13.50;;;7.10;;
40433;SDS011;26146;51.114;5.654;2023-04-15T08:35:34;13.63;;;7.30;;
40433;SDS011;26146;51.114;5.654;2023-04-15T08:39:35;13.17;;;7.10;;
40433;SDS011;26146;51.114;5.654;2023-04-15T08:43:39;9.17;;;4.80;;
40433;SDS011;26146;51.114;5.654;2023-04-15T08:47:46;11.70;;;4.80;;
40433;SDS011;26146;51.114;5.654;2023-04-15T08:51:55;10.50;;;5.10;;
40433;SDS011;26146;51.114;5.654;2023-04-15T08:55:58;13.43;;;5.83;;
40433;SDS011;26146;51.114;5.654;2023-04-15T09:00:04;11.67;;;5.40;;
40433;SDS011;26146;51.114;5.654;2023-04-15T09:04:06;10.97;;;4.50;;
40433;SDS011;26146;51.114;5.654;2023-04-15T09:08:08;12.17;;;4.70;;
40433;SDS011;26146;51.114;5.654;2023-04-15T09:12:09;10.10;;;4.70;;
40433;SDS011;26146;51.114;5.654;2023-04-15T09:16:11;9.13;;;3.77;;
40433;SDS011;26146;51.114;5.654;2023-04-15T09:20:13;10.43;;;4.20;;
40433;SDS011;26146;51.114;5.654;2023-04-15T09:24:15;10.27;;;4.10;;
40433;SDS011;26146;51.114;5.654;2023-04-15T09:28:22;10.83;;;4.30;;
40433;SDS011;26146;51.114;5.654;2023-04-15T09:32:25;11.57;;;4.20;;
40433;SDS011;26146;51.114;5.654;2023-04-15T09:36:26;10.67;;;3.80;;
40433;SDS011;26146;51.114;5.654;2023-04-15T09:40:38;8.73;;;4.10;;
40433;SDS011;26146;51.114;5.654;2023-04-15T09:44:55;11.63;;;4.17;;
40433;SDS011;26146;51.114;5.654;2023-04-15T09:49:25;11.90;;;4.23;;
40433;SDS011;26146;51.114;5.654;2023-04-15T09:53:26;8.30;;;3.70;;
40433;SDS011;26146;51.114;5.654;2023-04-15T09:57:37;9.93;;;4.20;;
40433;SDS011;26146;51.114;5.654;2023-04-15T10:01:39;8.57;;;3.57;;
40433;SDS011;26146;51.114;5.654;2023-04-15T10:05:42;9.07;;;3.00;;
40433;SDS011;26146;51.114;5.654;2023-04-15T10:09:44;9.00;;;3.43;;
40433;SDS011;26146;51.114;5.654;2023-04-15T10:13:46;11.30;;;4.03;;
40433;SDS011;26146;51.114;5.654;2023-04-15T10:17:49;8.23;;;4.07;;
40433;SDS011;26146;51.114;5.654;2023-04-15T10:21:54;7.23;;;2.57;;
40433;SDS011;26146;51.114;5.654;2023-04-15T10:25:55;5.97;;;2.33;;
40433;SDS011;26146;51.114;5.654;2023-04-15T10:29:59;7.87;;;3.00;;
40433;SDS011;26146;51.114;5.654;2023-04-15T10:34:03;8.13;;;3.08;;
40433;SDS011;26146;51.114;5.654;2023-04-15T10:42:39;7.60;;;2.80;;
40433;SDS011;26146;51.114;5.654;2023-04-15T10:46:40;6.73;;;2.30;;
40433;SDS011;26146;51.114;5.654;2023-04-15T10:50:54;6.90;;;2.60;;
40433;SDS011;26146;51.114;5.654;2023-04-15T10:55:04;8.33;;;2.37;;
40433;SDS011;26146;51.114;5.654;2023-04-15T10:59:11;6.95;;;2.70;;
40433;SDS011;26146;51.114;5.654;2023-04-15T11:03:12;7.70;;;3.28;;
40433;SDS011;26146;51.114;5.654;2023-04-15T11:07:13;6.45;;;2.30;;
40433;SDS011;26146;51.114;5.654;2023-04-15T11:11:14;7.53;;;2.23;;
40433;SDS011;26146;51.114;5.654;2023-04-15T11:15:29;6.47;;;1.90;;
40433;SDS011;26146;51.114;5.654;2023-04-15T11:19:47;6.75;;;1.60;;
40433;SDS011;26146;51.114;5.654;2023-04-15T11:23:48;5.57;;;1.60;;
40433;SDS011;26146;51.114;5.654;2023-04-15T11:27:53;5.10;;;1.50;;
40433;SDS011;26146;51.114;5.654;2023-04-15T11:32:03;5.82;;;2.00;;
40433;SDS011;26146;51.114;5.654;2023-04-15T11:36:07;5.88;;;1.90;;
40433;SDS011;26146;51.114;5.654;2023-04-15T11:40:10;5.88;;;2.10;;
40433;SDS011;26146;51.114;5.654;2023-04-15T11:44:15;5.95;;;1.80;;
40433;SDS011;26146;51.114;5.654;2023-04-15T11:52:19;7.20;;;2.22;;
40433;SDS011;26146;51.114;5.654;2023-04-15T11:56:21;6.28;;;2.10;;
40433;SDS011;26146;51.114;5.654;2023-04-15T12:00:23;8.07;;;2.20;;
40433;SDS011;26146;51.114;5.654;2023-04-15T12:04:27;6.85;;;2.47;;
40433;SDS011;26146;51.114;5.654;2023-04-15T12:13:05;5.80;;;2.22;;
40433;SDS011;26146;51.114;5.654;2023-04-15T12:17:06;5.68;;;2.00;;
40433;SDS011;26146;51.114;5.654;2023-04-15T12:21:10;6.03;;;1.85;;
40433;SDS011;26146;51.114;5.654;2023-04-15T12:25:12;5.93;;;1.83;;
40433;SDS011;26146;51.114;5.654;2023-04-15T12:29:14;6.45;;;2.33;;
40433;SDS011;26146;51.114;5.654;2023-04-15T12:33:16;7.35;;;2.10;;
40433;SDS011;26146;51.114;5.654;2023-04-15T12:37:17;7.60;;;2.42;;
40433;SDS011;26146;51.114;5.654;2023-04-15T12:41:19;6.15;;;2.20;;
40433;SDS011;26146;51.114;5.654;2023-04-15T12:45:21;6.53;;;2.35;;
40433;SDS011;26146;51.114;5.654;2023-04-15T12:49:22;5.82;;;2.05;;
40433;SDS011;26146;51.114;5.654;2023-04-15T12:53:23;6.13;;;2.40;;
40433;SDS011;26146;51.114;5.654;2023-04-15T12:57:25;8.20;;;2.00;;
40433;SDS011;26146;51.114;5.654;2023-04-15T13:01:26;6.38;;;1.90;;
40433;SDS011;26146;51.114;5.654;2023-04-15T13:05:27;5.35;;;1.50;;
40433;SDS011;26146;51.114;5.654;2023-04-15T13:09:28;4.85;;;1.60;;
40433;SDS011;26146;51.114;5.654;2023-04-15T13:13:30;5.75;;;1.80;;
40433;SDS011;26146;51.114;5.654;2023-04-15T13:17:31;5.60;;;1.90;;
40433;SDS011;26146;51.114;5.654;2023-04-15T13:21:32;5.80;;;1.80;;
40433;SDS011;26146;51.114;5.654;2023-04-15T13:25:34;11.65;;;2.22;;
40433;SDS011;26146;51.114;5.654;2023-04-15T13:29:35;6.05;;;2.00;;
40433;SDS011;26146;51.114;5.654;2023-04-15T13:33:36;5.32;;;1.95;;
40433;SDS011;26146;51.114;5.654;2023-04-15T13:37:40;5.22;;;1.88;;
40433;SDS011;26146;51.114;5.654;2023-04-15T13:41:41;6.82;;;1.75;;
40433;SDS011;26146;51.114;5.654;2023-04-15T13:45:42;6.38;;;1.80;;
40433;SDS011;26146;51.114;5.654;2023-04-15T13:49:44;5.28;;;1.65;;
40433;SDS011;26146;51.114;5.654;2023-04-15T13:53:45;5.18;;;1.70;;
40433;SDS011;26146;51.114;5.654;2023-04-15T13:57:46;6.20;;;1.98;;
40433;SDS011;26146;51.114;5.654;2023-04-15T14:01:47;6.30;;;1.85;;
40433;SDS011;26146;51.114;5.654;2023-04-15T14:05:48;5.78;;;1.70;;
40433;SDS011;26146;51.114;5.654;2023-04-15T14:09:57;7.00;;;2.13;;
40433;SDS011;26146;51.114;5.654;2023-04-15T14:13:59;6.03;;;2.00;;
40433;SDS011;26146;51.114;5.654;2023-04-15T14:18:00;6.30;;;1.83;;
40433;SDS011;26146;51.114;5.654;2023-04-15T14:22:01;5.68;;;2.00;;
40433;SDS011;26146;51.114;5.654;2023-04-15T14:26:02;6.15;;;1.90;;
40433;SDS011;26146;51.114;5.654;2023-04-15T14:30:04;7.70;;;2.00;;
40433;SDS011;26146;51.114;5.654;2023-04-15T14:34:08;6.63;;;2.25;;
40433;SDS011;26146;51.114;5.654;2023-04-15T14:38:11;5.85;;;1.65;;
40433;SDS011;26146;51.114;5.654;2023-04-15T14:42:12;5.90;;;1.73;;
40433;SDS011;26146;51.114;5.654;2023-04-15T14:46:13;5.35;;;1.60;;
40433;SDS011;26146;51.114;5.654;2023-04-15T14:50:15;7.13;;;1.90;;
40433;SDS011;26146;51.114;5.654;2023-04-15T14:54:16;7.25;;;1.70;;
40433;SDS011;26146;51.114;5.654;2023-04-15T14:58:17;6.20;;;1.50;;
40433;SDS011;26146;51.114;5.654;2023-04-15T15:02:21;5.70;;;1.63;;
40433;SDS011;26146;51.114;5.654;2023-04-15T15:06:28;6.75;;;2.17;;
40433;SDS011;26146;51.114;5.654;2023-04-15T15:10:29;6.00;;;1.60;;
40433;SDS011;26146;51.114;5.654;2023-04-15T15:14:29;8.90;;;1.67;;
40433;SDS011;26146;51.114;5.654;2023-04-15T15:18:34;5.18;;;1.45;;
40433;SDS011;26146;51.114;5.654;2023-04-15T15:22:35;4.90;;;1.30;;
40433;SDS011;26146;51.114;5.654;2023-04-15T15:26:36;4.53;;;1.13;;
40433;SDS011;26146;51.114;5.654;2023-04-15T15:30:37;6.07;;;1.30;;
40433;SDS011;26146;51.114;5.654;2023-04-15T15:34:38;6.20;;;1.30;;
40433;SDS011;26146;51.114;5.654;2023-04-15T15:38:39;5.03;;;1.40;;
40433;SDS011;26146;51.114;5.654;2023-04-15T15:42:41;6.80;;;1.60;;
40433;SDS011;26146;51.114;5.654;2023-04-15T15:46:42;4.85;;;1.30;;
40433;SDS011;26146;51.114;5.654;2023-04-15T15:50:44;4.38;;;1.10;;
40433;SDS011;26146;51.114;5.654;2023-04-15T15:54:45;5.78;;;1.10;;
40433;SDS011;26146;51.114;5.654;2023-04-15T15:58:46;5.57;;;1.10;;
40433;SDS011;26146;51.114;5.654;2023-04-15T16:02:46;4.03;;;1.00;;
40433;SDS011;26146;51.114;5.654;2023-04-15T16:06:47;5.38;;;1.15;;
40433;SDS011;26146;51.114;5.654;2023-04-15T16:10:48;5.47;;;1.00;;
40433;SDS011;26146;51.114;5.654;2023-04-15T16:14:49;4.57;;;0.90;;
40433;SDS011;26146;51.114;5.654;2023-04-15T16:18:51;3.63;;;0.88;;
40433;SDS011;26146;51.114;5.654;2023-04-15T16:22:52;6.57;;;1.05;;
40433;SDS011;26146;51.114;5.654;2023-04-15T16:26:53;4.30;;;0.90;;
40433;SDS011;26146;51.114;5.654;2023-04-15T16:30:58;5.43;;;0.93;;
40433;SDS011;26146;51.114;5.654;2023-04-15T16:34:59;4.72;;;1.00;;
40433;SDS011;26146;51.114;5.654;2023-04-15T16:39:03;4.57;;;1.00;;
40433;SDS011;26146;51.114;5.654;2023-04-15T16:43:04;5.07;;;1.10;;
40433;SDS011;26146;51.114;5.654;2023-04-15T16:47:07;7.33;;;1.60;;
40433;SDS011;26146;51.114;5.654;2023-04-15T16:51:10;5.27;;;1.10;;
40433;SDS011;26146;51.114;5.654;2023-04-15T16:55:11;6.50;;;1.00;;
40433;SDS011;26146;51.114;5.654;2023-04-15T16:59:12;5.70;;;1.03;;
40433;SDS011;26146;51.114;5.654;2023-04-15T17:03:13;4.90;;;1.07;;
40433;SDS011;26146;51.114;5.654;2023-04-15T17:07:14;6.23;;;0.93;;
40433;SDS011;26146;51.114;5.654;2023-04-15T17:11:15;4.57;;;1.17;;
40433;SDS011;26146;51.114;5.654;2023-04-15T17:15:16;5.83;;;1.10;;
40433;SDS011;26146;51.114;5.654;2023-04-15T17:19:20;5.70;;;1.30;;
40433;SDS011;26146;51.114;5.654;2023-04-15T17:23:21;7.17;;;1.40;;
40433;SDS011;26146;51.114;5.654;2023-04-15T17:27:22;7.07;;;1.20;;
40433;SDS011;26146;51.114;5.654;2023-04-15T17:31:23;5.13;;;1.27;;
40433;SDS011;26146;51.114;5.654;2023-04-15T17:35:24;4.40;;;1.23;;
40433;SDS011;26146;51.114;5.654;2023-04-15T17:39:26;7.30;;;1.23;;
40433;SDS011;26146;51.114;5.654;2023-04-15T17:43:26;7.40;;;1.40;;
40433;SDS011;26146;51.114;5.654;2023-04-15T17:47:27;6.60;;;1.17;;
40433;SDS011;26146;51.114;5.654;2023-04-15T17:51:30;7.37;;;1.33;;
40433;SDS011;26146;51.114;5.654;2023-04-15T17:55:32;5.33;;;1.10;;
40433;SDS011;26146;51.114;5.654;2023-04-15T17:59:35;7.37;;;1.30;;
40433;SDS011;26146;51.114;5.654;2023-04-15T18:03:43;7.07;;;1.10;;
40433;SDS011;26146;51.114;5.654;2023-04-15T18:07:44;5.07;;;1.00;;
40433;SDS011;26146;51.114;5.654;2023-04-15T18:11:45;7.00;;;1.00;;
40433;SDS011;26146;51.114;5.654;2023-04-15T18:15:47;6.20;;;1.20;;
40433;SDS011;26146;51.114;5.654;2023-04-15T18:19:50;5.57;;;1.10;;
40433;SDS011;26146;51.114;5.654;2023-04-15T18:23:51;6.53;;;1.00;;
40433;SDS011;26146;51.114;5.654;2023-04-15T18:27:53;7.53;;;1.40;;
40433;SDS011;26146;51.114;5.654;2023-04-15T18:31:54;5.93;;;1.40;;
40433;SDS011;26146;51.114;5.654;2023-04-15T18:35:56;5.37;;;1.10;;
40433;SDS011;26146;51.114;5.654;2023-04-15T18:39:57;6.13;;;1.50;;
40433;SDS011;26146;51.114;5.654;2023-04-15T18:43:58;6.00;;;1.37;;
40433;SDS011;26146;51.114;5.654;2023-04-15T18:47:59;6.07;;;1.20;;
40433;SDS011;26146;51.114;5.654;2023-04-15T18:52:01;6.57;;;1.10;;
40433;SDS011;26146;51.114;5.654;2023-04-15T18:56:03;6.70;;;1.00;;
40433;SDS011;26146;51.114;5.654;2023-04-15T19:00:04;7.27;;;1.13;;
40433;SDS011;26146;51.114;5.654;2023-04-15T19:04:05;6.53;;;1.10;;
40433;SDS011;26146;51.114;5.654;2023-04-15T19:08:06;5.43;;;1.00;;
40433;SDS011;26146;51.114;5.654;2023-04-15T19:12:07;5.27;;;1.10;;
40433;SDS011;26146;51.114;5.654;2023-04-15T19:16:08;7.17;;;1.00;;
40433;SDS011;26146;51.114;5.654;2023-04-15T19:20:09;9.33;;;1.30;;
40433;SDS011;26146;51.114;5.654;2023-04-15T19:24:10;9.10;;;1.20;;
40433;SDS011;26146;51.114;5.654;2023-04-15T19:28:11;6.70;;;1.10;;
40433;SDS011;26146;51.114;5.654;2023-04-15T19:32:12;7.00;;;1.30;;
40433;SDS011;26146;51.114;5.654;2023-04-15T19:36:13;8.90;;;1.20;;
40433;SDS011;26146;51.114;5.654;2023-04-15T19:40:15;8.37;;;1.30;;
40433;SDS011;26146;51.114;5.654;2023-04-15T19:44:16;7.40;;;1.43;;
40433;SDS011;26146;51.114;5.654;2023-04-15T19:48:17;9.80;;;1.30;;
40433;SDS011;26146;51.114;5.654;2023-04-15T19:52:18;6.17;;;1.10;;
40433;SDS011;26146;51.114;5.654;2023-04-15T19:56:19;8.57;;;1.30;;
40433;SDS011;26146;51.114;5.654;2023-04-15T20:00:20;6.83;;;1.40;;
40433;SDS011;26146;51.114;5.654;2023-04-15T20:04:21;8.83;;;1.30;;
40433;SDS011;26146;51.114;5.654;2023-04-15T20:08:22;7.67;;;1.30;;
40433;SDS011;26146;51.114;5.654;2023-04-15T20:12:25;11.50;;;1.70;;
40433;SDS011;26146;51.114;5.654;2023-04-15T20:16:27;10.33;;;2.00;;
40433;SDS011;26146;51.114;5.654;2023-04-15T20:20:32;11.50;;;1.93;;
40433;SDS011;26146;51.114;5.654;2023-04-15T20:24:34;8.40;;;1.73;;
40433;SDS011;26146;51.114;5.654;2023-04-15T20:28:35;9.17;;;1.90;;
40433;SDS011;26146;51.114;5.654;2023-04-15T20:32:36;10.83;;;1.90;;
40433;SDS011;26146;51.114;5.654;2023-04-15T20:36:37;11.77;;;1.73;;
40433;SDS011;26146;51.114;5.654;2023-04-15T20:40:38;10.73;;;1.60;;
40433;SDS011;26146;51.114;5.654;2023-04-15T20:44:39;8.67;;;1.57;;
40433;SDS011;26146;51.114;5.654;2023-04-15T20:48:40;10.10;;;1.70;;
40433;SDS011;26146;51.114;5.654;2023-04-15T20:52:41;9.70;;;1.80;;
40433;SDS011;26146;51.114;5.654;2023-04-15T20:56:42;7.30;;;1.70;;
40433;SDS011;26146;51.114;5.654;2023-04-15T21:00:46;9.37;;;1.77;;
40433;SDS011;26146;51.114;5.654;2023-04-15T21:04:47;10.93;;;1.97;;
40433;SDS011;26146;51.114;5.654;2023-04-15T21:08:47;11.57;;;2.23;;
40433;SDS011;26146;51.114;5.654;2023-04-15T21:12:48;12.90;;;2.00;;
40433;SDS011;26146;51.114;5.654;2023-04-15T21:16:49;14.70;;;3.07;;
40433;SDS011;26146;51.114;5.654;2023-04-15T21:21:00;12.33;;;2.73;;
40433;SDS011;26146;51.114;5.654;2023-04-15T21:25:01;11.23;;;2.40;;
40433;SDS011;26146;51.114;5.654;2023-04-15T21:29:02;8.93;;;1.70;;
40433;SDS011;26146;51.114;5.654;2023-04-15T21:33:03;8.63;;;1.67;;
40433;SDS011;26146;51.114;5.654;2023-04-15T21:37:06;7.73;;;1.40;;
40433;SDS011;26146;51.114;5.654;2023-04-15T21:41:07;8.63;;;1.40;;
40433;SDS011;26146;51.114;5.654;2023-04-15T21:45:09;7.53;;;1.30;;
40433;SDS011;26146;51.114;5.654;2023-04-15T21:49:10;11.77;;;1.60;;
40433;SDS011;26146;51.114;5.654;2023-04-15T21:53:14;9.90;;;1.60;;
40433;SDS011;26146;51.114;5.654;2023-04-15T21:57:15;9.20;;;1.53;;
40433;SDS011;26146;51.114;5.654;2023-04-15T22:01:16;11.43;;;2.20;;
40433;SDS011;26146;51.114;5.654;2023-04-15T22:05:17;14.63;;;3.00;;
40433;SDS011;26146;51.114;5.654;2023-04-15T22:09:18;12.40;;;2.40;;
40433;SDS011;26146;51.114;5.654;2023-04-15T22:13:19;9.60;;;1.90;;
40433;SDS011;26146;51.114;5.654;2023-04-15T22:17:20;11.30;;;2.10;;
40433;SDS011;26146;51.114;5.654;2023-04-15T22:21:21;9.97;;;2.07;;
40433;SDS011;26146;51.114;5.654;2023-04-15T22:25:23;8.47;;;2.33;;
40433;SDS011;26146;51.114;5.654;2023-04-15T22:29:24;9.83;;;2.10;;
40433;SDS011;26146;51.114;5.654;2023-04-15T22:33:25;13.17;;;2.53;;
40433;SDS011;26146;51.114;5.654;2023-04-15T22:37:26;10.20;;;1.90;;
40433;SDS011;26146;51.114;5.654;2023-04-15T22:41:30;8.20;;;2.00;;
40433;SDS011;26146;51.114;5.654;2023-04-15T22:45:31;8.13;;;2.00;;
40433;SDS011;26146;51.114;5.654;2023-04-15T22:49:32;10.90;;;2.30;;
40433;SDS011;26146;51.114;5.654;2023-04-15T22:53:34;10.03;;;2.00;;
40433;SDS011;26146;51.114;5.654;2023-04-15T22:57:35;8.43;;;2.20;;
40433;SDS011;26146;51.114;5.654;2023-04-15T23:01:36;11.17;;;2.57;;
40433;SDS011;26146;51.114;5.654;2023-04-15T23:05:37;10.23;;;2.20;;
40433;SDS011;26146;51.114;5.654;2023-04-15T23:09:40;8.57;;;2.20;;
40433;SDS011;26146;51.114;5.654;2023-04-15T23:13:41;10.33;;;2.87;;
40433;SDS011;26146;51.114;5.654;2023-04-15T23:17:42;10.13;;;2.77;;
40433;SDS011;26146;51.114;5.654;2023-04-15T23:21:43;10.00;;;2.93;;
40433;SDS011;26146;51.114;5.654;2023-04-15T23:25:43;10.50;;;3.13;;
40433;SDS011;26146;51.114;5.654;2023-04-15T23:29:45;11.50;;;3.33;;
40433;SDS011;26146;51.114;5.654;2023-04-15T23:33:46;9.37;;;3.07;;
40433;SDS011;26146;51.114;5.654;2023-04-15T23:37:47;14.30;;;4.00;;
40433;SDS011;26146;51.114;5.654;2023-04-15T23:41:48;12.00;;;3.70;;
40433;SDS011;26146;51.114;5.654;2023-04-15T23:45:49;15.07;;;3.80;;
40433;SDS011;26146;51.114;5.654;2023-04-15T23:49:50;13.00;;;5.00;;
40433;SDS011;26146;51.114;5.654;2023-04-15T23:53:51;13.97;;;3.70;;
40433;SDS011;26146;51.114;5.654;2023-04-15T23:57:52;14.20;;;3.90;;
